Brandon, SD (57005)

2:29 PM CST on February 10, 2016 (GMT -0600)
IEM | | Change Station
CLOSE
Current Station
Personal Weather Station
Location: Brandon, SD
Elevation: 1368 ft
Nearby Weather Stations

Elev 1368 ft 43.60 °N, 96.58 °W | Updated 23 minutes ago

Overcast
Overcast
18 °F
Feels Like 3 °F
N
17
Wind Variable Wind from East
Gusts 0.0 mph

Today
High -- | Low -- °F
--% Chance of Precip.
Yesterday
High -- | Low -- °F
Precip. -- in
Pressure 30.04 in
Visibility 10.0 miles
Clouds Mostly Cloudy 1200 ft
Overcast 4500 ft
Windchill 3 °F
Dew Point 18 °F
Humidity 100%
Rainfall in
Snow Depth Not available.
7:32 AM 5:49 PM
Waxing Crescent, 7% visible
METAR KFSD 101956Z 10012KT 10SM BKN012 OVC045 M08/M11 A2996 RMK AO2 SLP171 T10781111
Pressure 30.04 in
Visibility 10.0 miles
Clouds Mostly Cloudy 1200 ft
Overcast 4500 ft
Windchill 3 °F
Dew Point 18 °F
Humidity 100%
Rainfall in
Snow Depth Not available.
7:32 AM 5:49 PM
Waxing Crescent, 7% visible
METAR KFSD 101956Z 10012KT 10SM BKN012 OVC045 M08/M11 A2996 RMK AO2 SLP171 T10781111

10-Day Weather Forecast

Almanac

Astronomy

Feb. 10, 2016 Rise Set
Actual Time
Civil Twilight
Nautical Twilight
Astronomical Twilight
Moon
Length of Visible Light
Length of Day
Tomorrow will be .
, % of the Moon is Illuminated

Today's Extremes

State Highs State Lows

Community

WunderPhotos

Upload Photos

1,891,942 photos uploaded!

WunderBlog® & News

Nearby

Air Quality

  Air Quality AQ Index Pollutant
Not available.

Snow Depth

Station Depth Elevation

Earthquake Activity

City Distance Mag. Time & Date
Minimum magnitude displayed is 2.5.

Coastal Water Temperatures

Place Temperature

Stations

Nearby Weather Stations

Station Location Temp. Windchill Dew Point Humidity Wind Precip. Elev Updated Type
                   

Watches & Warnings

There are currently no watches in effect.